Time;durP1;ratioP1;P1;durP2;ratioP2;P2;SDS_P1;SDS_P2;PMS_P1;PMS_P2;Temp;Humidity;BMP_temperature;BMP_pressure;BME280_temperature;BME280_humidity;BME280_pressure;Samples;Min_cycle;Max_cycle;Signal;HPM_P1;HPM_P2
2024/01/16 02:43:36;;;;;;;4.10;1.80;;;;;;;-2.43;79.40;97379.55;106904;1304;545028;-46
2024/01/16 02:46:01;;;;;;;4.30;1.70;;;;;;;-2.48;79.72;97374.39;107333;1298;22263;-44
2024/01/16 02:48:26;;;;;;;4.00;1.40;;;;;;;-2.48;79.54;97375.94;107035;1293;22273;-48
2024/01/16 02:50:52;;;;;;;2.00;1.30;;;;;;;-2.49;78.93;97379.39;107449;1295;22323;-50
2024/01/16 02:53:17;;;;;;;6.10;1.60;;;;;;;-2.48;78.94;97388.48;107452;1295;22450;-47
2024/01/16 02:55:42;;;;;;;3.70;1.70;;;;;;;-2.49;78.60;97390.56;107472;1289;22274;-52
2024/01/16 02:58:08;;;;;;;3.30;1.40;;;;;;;-2.51;78.35;97397.15;107586;1292;152588;-50
2024/01/16 03:00:33;;;;;;;2.40;1.30;;;;;;;-2.52;77.50;97395.11;107528;1289;23293;-46
2024/01/16 03:02:59;;;;;;;3.60;1.40;;;;;;;-2.51;78.01;97399.22;107707;1291;22243;-46
2024/01/16 03:05:25;;;;;;;4.90;1.30;;;;;;;-2.52;77.60;97403.34;107706;1292;22320;-46
2024/01/16 03:07:50;;;;;;;6.30;1.40;;;;;;;-2.53;77.53;97408.02;107704;1288;22219;-48
2024/01/16 03:10:15;;;;;;;2.40;1.50;;;;;;;-2.54;77.20;97409.58;107718;1309;22441;-47
2024/01/16 03:12:41;;;;;;;5.40;1.50;;;;;;;-2.52;77.79;97413.14;107697;1292;22301;-47
2024/01/16 03:15:06;;;;;;;5.50;1.50;;;;;;;-2.56;77.21;97417.71;107723;1290;22946;-50
2024/01/16 03:17:31;;;;;;;2.50;1.40;;;;;;;-2.58;77.47;97420.02;107711;1291;22985;-45
2024/01/16 03:19:56;;;;;;;2.20;1.40;;;;;;;-2.62;77.42;97420.16;107710;1286;22273;-50
2024/01/16 03:22:22;;;;;;;3.20;1.50;;;;;;;-2.62;77.44;97420.83;107715;1286;23245;-48
2024/01/16 03:24:48;;;;;;;2.20;1.20;;;;;;;-2.64;77.42;97420.22;107737;1289;22421;-47
2024/01/16 03:27:13;;;;;;;3.00;1.50;;;;;;;-2.67;77.14;97422.38;107708;1292;22516;-47
2024/01/16 03:29:39;;;;;;;3.60;1.50;;;;;;;-2.76;76.65;97422.46;107715;1288;22642;-45
2024/01/16 03:32:04;;;;;;;1.60;1.30;;;;;;;-2.75;76.90;97421.42;107718;1292;22252;-48
2024/01/16 03:34:31;;;;;;;3.90;1.30;;;;;;;-2.74;77.15;97425.17;107702;1309;22512;-45
2024/01/16 03:36:56;;;;;;;4.10;1.20;;;;;;;-2.78;76.92;97430.79;107714;1292;22910;-45
2024/01/16 03:39:22;;;;;;;4.20;1.50;;;;;;;-2.79;77.59;97429.61;107742;1289;22982;-45
2024/01/16 03:41:47;;;;;;;7.60;1.80;;;;;;;-2.81;77.18;97429.70;107677;1286;22493;-46
2024/01/16 03:44:13;;;;;;;6.00;1.60;;;;;;;-2.83;76.82;97433.35;107682;1288;22264;-46
2024/01/16 03:46:38;;;;;;;2.40;1.20;;;;;;;-2.79;77.47;97440.23;107673;1292;22288;-45
2024/01/16 03:49:04;;;;;;;4.30;1.30;;;;;;;-2.84;76.51;97444.70;107657;1289;22320;-45
2024/01/16 03:51:29;;;;;;;1.70;1.30;;;;;;;-2.89;76.52;97443.12;107734;1308;22331;-50
2024/01/16 03:53:54;;;;;;;3.00;1.40;;;;;;;-2.88;76.56;97446.02;107743;1291;23359;-50
2024/01/16 03:56:20;;;;;;;3.30;1.50;;;;;;;-2.86;76.74;97452.48;107723;1288;22301;-51
2024/01/16 03:58:45;;;;;;;2.70;1.30;;;;;;;-2.88;76.58;97454.77;107739;1292;22950;-46
2024/01/16 04:01:10;;;;;;;2.60;1.40;;;;;;;-2.93;75.90;97453.88;107739;1288;22310;-46
2024/01/16 04:03:35;;;;;;;3.90;1.50;;;;;;;-2.91;76.00;97456.39;107736;1288;23026;-45
2024/01/16 04:06:01;;;;;;;2.60;1.30;;;;;;;-2.98;75.59;97465.71;107697;1309;22239;-51
2024/01/16 04:08:26;;;;;;;3.90;1.20;;;;;;;-3.07;75.51;97467.48;107708;1292;22414;-50
2024/01/16 04:10:51;;;;;;;3.50;1.70;;;;;;;-3.13;75.51;97472.98;107686;1309;23337;-47
2024/01/16 04:13:17;;;;;;;2.30;1.40;;;;;;;-3.16;75.91;97471.88;107734;1287;22955;-49
2024/01/16 04:15:42;;;;;;;4.00;1.70;;;;;;;-3.25;75.90;97474.70;107722;1291;22245;-51
2024/01/16 04:18:08;;;;;;;5.90;2.40;;;;;;;-3.29;76.08;97471.40;107699;1291;22473;-47
2024/01/16 04:20:33;;;;;;;4.30;1.50;;;;;;;-3.34;75.84;97469.31;107682;1289;22229;-50
2024/01/16 04:22:58;;;;;;;3.80;1.70;;;;;;;-3.36;76.09;97475.88;107717;1289;23371;-48
2024/01/16 04:25:24;;;;;;;4.10;1.80;;;;;;;-3.38;76.25;97478.70;107704;1309;22228;-46
2024/01/16 04:27:49;;;;;;;3.60;1.80;;;;;;;-3.41;76.36;97478.26;107709;1307;22446;-45
2024/01/16 04:30:15;;;;;;;4.50;2.20;;;;;;;-3.39;76.70;97478.55;107732;1290;22259;-47
2024/01/16 04:32:40;;;;;;;4.50;1.50;;;;;;;-3.38;76.78;97481.23;107706;1289;22420;-45
2024/01/16 04:35:05;;;;;;;2.60;1.70;;;;;;;-3.37;76.86;97483.98;107780;1291;22548;-47
2024/01/16 04:37:31;;;;;;;3.90;1.50;;;;;;;-3.35;76.90;97483.55;107768;1307;22267;-45
2024/01/16 04:39:57;;;;;;;3.00;1.80;;;;;;;-3.31;77.32;97487.91;107776;1286;23421;-46
2024/01/16 04:42:23;;;;;;;2.70;1.40;;;;;;;-3.29;77.13;97491.80;107788;1308;22311;-47
2024/01/16 04:44:48;;;;;;;3.60;1.80;;;;;;;-3.31;76.61;97504.54;107759;1308;22241;-46
2024/01/16 04:47:13;;;;;;;5.00;2.30;;;;;;;-3.27;76.86;97509.23;107772;1285;22372;-45
2024/01/16 04:49:42;;;;;;;2.70;1.40;;;;;;;-3.22;76.98;97517.32;107787;1288;22832;-48
2024/01/16 04:52:07;;;;;;;16.30;6.60;;;;;;;-3.24;76.71;97523.53;107819;1305;22261;-47
2024/01/16 04:54:32;;;;;;;3.20;1.80;;;;;;;-3.24;76.50;97530.54;107776;1291;23032;-50
